sensor_id;sensor_type;location;lat;lon;timestamp;P1;durP1;ratioP1;P2;durP2;ratioP2
61840;SDS011;47773;53.174;6.614;2022-12-04T00:01:46;29.33;;;12.77;;
61840;SDS011;47773;53.174;6.614;2022-12-04T00:04:12;35.90;;;13.60;;
61840;SDS011;47773;53.174;6.614;2022-12-04T00:06:38;30.35;;;13.32;;
61840;SDS011;47773;53.174;6.614;2022-12-04T00:09:04;32.58;;;13.55;;
61840;SDS011;47773;53.174;6.614;2022-12-04T00:11:30;34.00;;;13.30;;
61840;SDS011;47773;53.174;6.614;2022-12-04T00:13:57;28.80;;;11.70;;
61840;SDS011;47773;53.174;6.614;2022-12-04T00:16:25;36.97;;;13.57;;
61840;SDS011;47773;53.174;6.614;2022-12-04T00:18:53;31.55;;;12.65;;
61840;SDS011;47773;53.174;6.614;2022-12-04T00:21:20;27.70;;;11.40;;
61840;SDS011;47773;53.174;6.614;2022-12-04T00:23:47;34.15;;;13.02;;
61840;SDS011;47773;53.174;6.614;2022-12-04T00:26:20;35.10;;;14.52;;
61840;SDS011;47773;53.174;6.614;2022-12-04T00:28:48;29.20;;;12.13;;
61840;SDS011;47773;53.174;6.614;2022-12-04T00:31:15;31.88;;;13.98;;
61840;SDS011;47773;53.174;6.614;2022-12-04T00:33:43;37.63;;;13.70;;
61840;SDS011;47773;53.174;6.614;2022-12-04T00:36:10;32.55;;;12.70;;
61840;SDS011;47773;53.174;6.614;2022-12-04T00:38:38;30.98;;;12.95;;
61840;SDS011;47773;53.174;6.614;2022-12-04T00:41:04;34.55;;;13.00;;
61840;SDS011;47773;53.174;6.614;2022-12-04T00:43:36;39.97;;;14.07;;
61840;SDS011;47773;53.174;6.614;2022-12-04T00:46:02;32.17;;;12.73;;
61840;SDS011;47773;53.174;6.614;2022-12-04T00:48:28;34.00;;;13.60;;
61840;SDS011;47773;53.174;6.614;2022-12-04T00:50:53;33.88;;;13.32;;
61840;SDS011;47773;53.174;6.614;2022-12-04T00:53:19;37.20;;;14.40;;
61840;SDS011;47773;53.174;6.614;2022-12-04T00:55:45;33.50;;;13.88;;
61840;SDS011;47773;53.174;6.614;2022-12-04T00:58:11;35.05;;;13.43;;
61840;SDS011;47773;53.174;6.614;2022-12-04T01:00:38;38.22;;;14.63;;
61840;SDS011;47773;53.174;6.614;2022-12-04T01:03:05;34.95;;;14.68;;
61840;SDS011;47773;53.174;6.614;2022-12-04T01:05:32;31.65;;;13.82;;
61840;SDS011;47773;53.174;6.614;2022-12-04T01:08:06;37.17;;;14.05;;
61840;SDS011;47773;53.174;6.614;2022-12-04T01:10:33;36.45;;;15.07;;
61840;SDS011;47773;53.174;6.614;2022-12-04T01:12:58;39.95;;;15.73;;
61840;SDS011;47773;53.174;6.614;2022-12-04T01:15:24;32.67;;;14.02;;
61840;SDS011;47773;53.174;6.614;2022-12-04T01:17:50;35.05;;;13.93;;
61840;SDS011;47773;53.174;6.614;2022-12-04T01:20:15;35.10;;;13.50;;
61840;SDS011;47773;53.174;6.614;2022-12-04T01:22:41;34.50;;;14.65;;
61840;SDS011;47773;53.174;6.614;2022-12-04T01:25:07;42.47;;;15.15;;
61840;SDS011;47773;53.174;6.614;2022-12-04T01:27:33;38.45;;;14.85;;
61840;SDS011;47773;53.174;6.614;2022-12-04T01:29:59;34.20;;;13.65;;
61840;SDS011;47773;53.174;6.614;2022-12-04T01:32:24;37.83;;;14.30;;
61840;SDS011;47773;53.174;6.614;2022-12-04T01:34:50;37.28;;;13.80;;
61840;SDS011;47773;53.174;6.614;2022-12-04T01:37:16;39.50;;;15.45;;
61840;SDS011;47773;53.174;6.614;2022-12-04T01:39:41;31.85;;;14.07;;
61840;SDS011;47773;53.174;6.614;2022-12-04T01:42:10;40.13;;;16.13;;
61840;SDS011;47773;53.174;6.614;2022-12-04T01:44:40;40.72;;;15.02;;
61840;SDS011;47773;53.174;6.614;2022-12-04T01:47:07;33.05;;;14.48;;
61840;SDS011;47773;53.174;6.614;2022-12-04T01:49:36;41.65;;;16.05;;
61840;SDS011;47773;53.174;6.614;2022-12-04T01:54:45;41.08;;;14.90;;
61840;SDS011;47773;53.174;6.614;2022-12-04T01:57:18;43.08;;;16.85;;
61840;SDS011;47773;53.174;6.614;2022-12-04T01:59:49;40.22;;;15.35;;
61840;SDS011;47773;53.174;6.614;2022-12-04T02:02:16;42.00;;;15.75;;
61840;SDS011;47773;53.174;6.614;2022-12-04T02:04:46;39.42;;;16.25;;
61840;SDS011;47773;53.174;6.614;2022-12-04T02:07:13;41.63;;;15.63;;
61840;SDS011;47773;53.174;6.614;2022-12-04T02:09:38;45.75;;;17.77;;
61840;SDS011;47773;53.174;6.614;2022-12-04T02:14:35;42.35;;;16.98;;
61840;SDS011;47773;53.174;6.614;2022-12-04T02:31:09;39.47;;;17.20;;
61840;SDS011;47773;53.174;6.614;2022-12-04T02:33:41;45.67;;;16.90;;
61840;SDS011;47773;53.174;6.614;2022-12-04T02:36:21;48.97;;;18.45;;
61840;SDS011;47773;53.174;6.614;2022-12-04T02:38:52;46.00;;;17.30;;
61840;SDS011;47773;53.174;6.614;2022-12-04T02:41:39;42.08;;;17.25;;
61840;SDS011;47773;53.174;6.614;2022-12-04T02:46:50;45.80;;;18.52;;
61840;SDS011;47773;53.174;6.614;2022-12-04T02:49:21;40.70;;;17.50;;
61840;SDS011;47773;53.174;6.614;2022-12-04T02:51:52;46.88;;;18.67;;
61840;SDS011;47773;53.174;6.614;2022-12-04T02:54:30;46.67;;;18.73;;
61840;SDS011;47773;53.174;6.614;2022-12-04T02:57:00;47.10;;;19.20;;
61840;SDS011;47773;53.174;6.614;2022-12-04T02:59:35;48.90;;;19.48;;
61840;SDS011;47773;53.174;6.614;2022-12-04T03:02:07;54.08;;;21.23;;
61840;SDS011;47773;53.174;6.614;2022-12-04T03:04:55;46.15;;;18.67;;
61840;SDS011;47773;53.174;6.614;2022-12-04T03:07:29;50.63;;;20.20;;
61840;SDS011;47773;53.174;6.614;2022-12-04T03:10:13;51.72;;;20.50;;
61840;SDS011;47773;53.174;6.614;2022-12-04T03:12:55;45.42;;;19.45;;
61840;SDS011;47773;53.174;6.614;2022-12-04T03:15:32;44.95;;;19.30;;
61840;SDS011;47773;53.174;6.614;2022-12-04T03:18:08;48.90;;;20.52;;
61840;SDS011;47773;53.174;6.614;2022-12-04T03:20:41;53.63;;;20.10;;
61840;SDS011;47773;53.174;6.614;2022-12-04T03:23:13;50.78;;;20.13;;
61840;SDS011;47773;53.174;6.614;2022-12-04T03:25:45;49.00;;;19.92;;
61840;SDS011;47773;53.174;6.614;2022-12-04T03:28:24;54.08;;;20.48;;
61840;SDS011;47773;53.174;6.614;2022-12-04T03:31:07;51.55;;;20.05;;
61840;SDS011;47773;53.174;6.614;2022-12-04T03:33:39;51.92;;;21.10;;
61840;SDS011;47773;53.174;6.614;2022-12-04T03:36:15;48.90;;;20.25;;
61840;SDS011;47773;53.174;6.614;2022-12-04T03:38:52;47.38;;;20.10;;
61840;SDS011;47773;53.174;6.614;2022-12-04T03:46:26;55.33;;;20.30;;
61840;SDS011;47773;53.174;6.614;2022-12-04T03:51:54;47.70;;;19.40;;
61840;SDS011;47773;53.174;6.614;2022-12-04T03:54:36;48.80;;;19.80;;
61840;SDS011;47773;53.174;6.614;2022-12-04T03:57:12;49.65;;;19.38;;
61840;SDS011;47773;53.174;6.614;2022-12-04T03:59:42;50.95;;;19.10;;
61840;SDS011;47773;53.174;6.614;2022-12-04T04:02:19;50.25;;;20.42;;
61840;SDS011;47773;53.174;6.614;2022-12-04T04:04:48;51.63;;;20.00;;
61840;SDS011;47773;53.174;6.614;2022-12-04T04:07:24;51.42;;;21.15;;
61840;SDS011;47773;53.174;6.614;2022-12-04T04:09:55;45.67;;;18.77;;
61840;SDS011;47773;53.174;6.614;2022-12-04T04:12:26;51.33;;;19.58;;
61840;SDS011;47773;53.174;6.614;2022-12-04T04:15:00;55.00;;;20.92;;
61840;SDS011;47773;53.174;6.614;2022-12-04T04:17:51;47.72;;;19.90;;
61840;SDS011;47773;53.174;6.614;2022-12-04T04:23:32;51.00;;;20.70;;
61840;SDS011;47773;53.174;6.614;2022-12-04T04:26:21;46.17;;;20.50;;
61840;SDS011;47773;53.174;6.614;2022-12-04T04:28:50;51.47;;;20.88;;
61840;SDS011;47773;53.174;6.614;2022-12-04T04:34:04;48.83;;;20.33;;
61840;SDS011;47773;53.174;6.614;2022-12-04T04:36:56;50.92;;;20.58;;
61840;SDS011;47773;53.174;6.614;2022-12-04T04:39:47;50.72;;;20.73;;
61840;SDS011;47773;53.174;6.614;2022-12-04T04:42:42;49.47;;;21.30;;
61840;SDS011;47773;53.174;6.614;2022-12-04T04:45:32;52.47;;;20.90;;
61840;SDS011;47773;53.174;6.614;2022-12-04T04:50:40;50.40;;;21.27;;
61840;SDS011;47773;53.174;6.614;2022-12-04T04:53:08;49.22;;;19.48;;
61840;SDS011;47773;53.174;6.614;2022-12-04T04:55:38;50.33;;;20.85;;
61840;SDS011;47773;53.174;6.614;2022-12-04T04:58:09;53.58;;;21.58;;
61840;SDS011;47773;53.174;6.614;2022-12-04T05:00:36;48.63;;;20.63;;
61840;SDS011;47773;53.174;6.614;2022-12-04T05:03:02;52.95;;;21.50;;
61840;SDS011;47773;53.174;6.614;2022-12-04T05:05:28;51.33;;;21.65;;
61840;SDS011;47773;53.174;6.614;2022-12-04T05:07:54;50.78;;;20.70;;
61840;SDS011;47773;53.174;6.614;2022-12-04T05:10:20;59.25;;;21.33;;
61840;SDS011;47773;53.174;6.614;2022-12-04T05:12:45;48.75;;;21.40;;
61840;SDS011;47773;53.174;6.614;2022-12-04T05:15:11;52.22;;;20.80;;
61840;SDS011;47773;53.174;6.614;2022-12-04T05:17:36;51.53;;;22.30;;
61840;SDS011;47773;53.174;6.614;2022-12-04T05:20:03;47.13;;;19.42;;
61840;SDS011;47773;53.174;6.614;2022-12-04T05:22:33;54.45;;;20.98;;
61840;SDS011;47773;53.174;6.614;2022-12-04T05:25:00;50.92;;;21.10;;
61840;SDS011;47773;53.174;6.614;2022-12-04T05:27:27;50.08;;;20.13;;
61840;SDS011;47773;53.174;6.614;2022-12-04T05:29:55;53.45;;;23.15;;
61840;SDS011;47773;53.174;6.614;2022-12-04T05:32:22;44.55;;;20.33;;
61840;SDS011;47773;53.174;6.614;2022-12-04T05:34:50;57.33;;;22.92;;
61840;SDS011;47773;53.174;6.614;2022-12-04T05:37:17;55.13;;;20.73;;
61840;SDS011;47773;53.174;6.614;2022-12-04T05:39:42;55.72;;;21.55;;
61840;SDS011;47773;53.174;6.614;2022-12-04T05:42:08;55.25;;;21.88;;
61840;SDS011;47773;53.174;6.614;2022-12-04T05:44:34;53.35;;;21.40;;
61840;SDS011;47773;53.174;6.614;2022-12-04T05:47:00;51.83;;;21.88;;
61840;SDS011;47773;53.174;6.614;2022-12-04T05:49:30;49.85;;;20.85;;
61840;SDS011;47773;53.174;6.614;2022-12-04T05:51:56;48.63;;;21.05;;
61840;SDS011;47773;53.174;6.614;2022-12-04T05:54:22;47.92;;;20.77;;
61840;SDS011;47773;53.174;6.614;2022-12-04T05:56:47;55.28;;;22.52;;
61840;SDS011;47773;53.174;6.614;2022-12-04T05:59:13;54.75;;;21.20;;
61840;SDS011;47773;53.174;6.614;2022-12-04T06:01:39;56.50;;;20.63;;
61840;SDS011;47773;53.174;6.614;2022-12-04T06:04:05;52.65;;;21.17;;
61840;SDS011;47773;53.174;6.614;2022-12-04T06:06:31;53.60;;;20.88;;
61840;SDS011;47773;53.174;6.614;2022-12-04T06:08:57;53.45;;;21.88;;
61840;SDS011;47773;53.174;6.614;2022-12-04T06:11:25;47.80;;;20.73;;
61840;SDS011;47773;53.174;6.614;2022-12-04T06:13:55;54.20;;;21.35;;
61840;SDS011;47773;53.174;6.614;2022-12-04T06:16:22;52.97;;;22.05;;
61840;SDS011;47773;53.174;6.614;2022-12-04T06:18:51;49.80;;;19.52;;
61840;SDS011;47773;53.174;6.614;2022-12-04T06:21:22;54.58;;;20.73;;
61840;SDS011;47773;53.174;6.614;2022-12-04T06:23:52;54.92;;;22.02;;
61840;SDS011;47773;53.174;6.614;2022-12-04T06:26:18;50.35;;;20.48;;
61840;SDS011;47773;53.174;6.614;2022-12-04T06:28:44;50.97;;;20.75;;
61840;SDS011;47773;53.174;6.614;2022-12-04T06:31:11;50.50;;;20.33;;
61840;SDS011;47773;53.174;6.614;2022-12-04T06:33:38;47.22;;;19.75;;
61840;SDS011;47773;53.174;6.614;2022-12-04T06:36:05;51.92;;;19.67;;
61840;SDS011;47773;53.174;6.614;2022-12-04T06:38:32;52.47;;;21.20;;
61840;SDS011;47773;53.174;6.614;2022-12-04T06:41:01;48.53;;;21.00;;
61840;SDS011;47773;53.174;6.614;2022-12-04T06:43:28;52.15;;;21.20;;
61840;SDS011;47773;53.174;6.614;2022-12-04T06:48:26;53.03;;;21.00;;
61840;SDS011;47773;53.174;6.614;2022-12-04T06:51:00;55.53;;;20.65;;
61840;SDS011;47773;53.174;6.614;2022-12-04T06:53:27;52.47;;;21.88;;
61840;SDS011;47773;53.174;6.614;2022-12-04T06:55:55;58.10;;;20.75;;
61840;SDS011;47773;53.174;6.614;2022-12-04T06:58:21;48.55;;;20.40;;
61840;SDS011;47773;53.174;6.614;2022-12-04T07:00:47;56.05;;;21.30;;
61840;SDS011;47773;53.174;6.614;2022-12-04T07:03:13;55.03;;;21.38;;
61840;SDS011;47773;53.174;6.614;2022-12-04T07:05:38;58.83;;;23.08;;
61840;SDS011;47773;53.174;6.614;2022-12-04T07:08:04;58.08;;;22.15;;
61840;SDS011;47773;53.174;6.614;2022-12-04T07:10:30;53.22;;;21.58;;
61840;SDS011;47773;53.174;6.614;2022-12-04T07:12:55;56.15;;;21.40;;
61840;SDS011;47773;53.174;6.614;2022-12-04T07:15:21;53.55;;;21.60;;
61840;SDS011;47773;53.174;6.614;2022-12-04T07:17:47;58.25;;;22.10;;
61840;SDS011;47773;53.174;6.614;2022-12-04T07:20:12;52.20;;;21.65;;
61840;SDS011;47773;53.174;6.614;2022-12-04T07:22:38;57.45;;;20.70;;
61840;SDS011;47773;53.174;6.614;2022-12-04T07:25:04;55.55;;;21.80;;
61840;SDS011;47773;53.174;6.614;2022-12-04T07:27:30;50.67;;;20.30;;
61840;SDS011;47773;53.174;6.614;2022-12-04T07:29:56;52.67;;;20.77;;
61840;SDS011;47773;53.174;6.614;2022-12-04T07:32:21;54.90;;;20.65;;
61840;SDS011;47773;53.174;6.614;2022-12-04T07:34:47;55.38;;;20.08;;
61840;SDS011;47773;53.174;6.614;2022-12-04T07:37:13;54.92;;;21.05;;
61840;SDS011;47773;53.174;6.614;2022-12-04T07:39:38;59.50;;;22.17;;
61840;SDS011;47773;53.174;6.614;2022-12-04T07:42:04;56.58;;;21.48;;
61840;SDS011;47773;53.174;6.614;2022-12-04T07:44:30;50.22;;;20.33;;
61840;SDS011;47773;53.174;6.614;2022-12-04T07:46:56;53.22;;;20.98;;
61840;SDS011;47773;53.174;6.614;2022-12-04T07:49:22;60.72;;;22.15;;
61840;SDS011;47773;53.174;6.614;2022-12-04T07:51:47;50.38;;;20.48;;
61840;SDS011;47773;53.174;6.614;2022-12-04T07:54:13;53.53;;;21.38;;
61840;SDS011;47773;53.174;6.614;2022-12-04T07:56:39;51.13;;;22.35;;
61840;SDS011;47773;53.174;6.614;2022-12-04T07:59:04;54.38;;;20.45;;
61840;SDS011;47773;53.174;6.614;2022-12-04T08:01:30;52.95;;;21.00;;
61840;SDS011;47773;53.174;6.614;2022-12-04T08:03:56;52.17;;;20.55;;
61840;SDS011;47773;53.174;6.614;2022-12-04T08:06:24;55.72;;;21.52;;
61840;SDS011;47773;53.174;6.614;2022-12-04T08:08:53;51.90;;;21.25;;
61840;SDS011;47773;53.174;6.614;2022-12-04T08:11:20;53.53;;;23.42;;
61840;SDS011;47773;53.174;6.614;2022-12-04T08:13:48;50.60;;;20.35;;
61840;SDS011;47773;53.174;6.614;2022-12-04T08:16:22;53.00;;;21.10;;
61840;SDS011;47773;53.174;6.614;2022-12-04T08:18:49;52.65;;;20.48;;
61840;SDS011;47773;53.174;6.614;2022-12-04T08:21:16;49.42;;;20.48;;
61840;SDS011;47773;53.174;6.614;2022-12-04T08:23:45;52.67;;;21.10;;
61840;SDS011;47773;53.174;6.614;2022-12-04T08:26:13;53.28;;;21.98;;
61840;SDS011;47773;53.174;6.614;2022-12-04T08:28:39;51.88;;;21.13;;
61840;SDS011;47773;53.174;6.614;2022-12-04T08:31:16;48.22;;;20.08;;
61840;SDS011;47773;53.174;6.614;2022-12-04T08:33:43;51.92;;;20.48;;
61840;SDS011;47773;53.174;6.614;2022-12-04T08:36:11;49.92;;;20.67;;
61840;SDS011;47773;53.174;6.614;2022-12-04T08:38:38;50.22;;;19.70;;
61840;SDS011;47773;53.174;6.614;2022-12-04T08:41:04;55.60;;;21.00;;
61840;SDS011;47773;53.174;6.614;2022-12-04T08:43:32;57.33;;;22.40;;
61840;SDS011;47773;53.174;6.614;2022-12-04T08:46:00;45.38;;;19.65;;
61840;SDS011;47773;53.174;6.614;2022-12-04T08:48:27;60.35;;;22.13;;
61840;SDS011;47773;53.174;6.614;2022-12-04T08:50:53;54.05;;;20.70;;
61840;SDS011;47773;53.174;6.614;2022-12-04T08:53:20;50.53;;;19.92;;
61840;SDS011;47773;53.174;6.614;2022-12-04T08:55:46;51.22;;;20.88;;
61840;SDS011;47773;53.174;6.614;2022-12-04T08:58:12;47.67;;;20.48;;
61840;SDS011;47773;53.174;6.614;2022-12-04T09:00:37;50.90;;;20.92;;
61840;SDS011;47773;53.174;6.614;2022-12-04T09:03:03;49.22;;;20.63;;
61840;SDS011;47773;53.174;6.614;2022-12-04T09:05:29;49.42;;;19.73;;
61840;SDS011;47773;53.174;6.614;2022-12-04T09:07:55;55.05;;;21.35;;
61840;SDS011;47773;53.174;6.614;2022-12-04T09:10:21;48.40;;;19.83;;
61840;SDS011;47773;53.174;6.614;2022-12-04T09:12:47;49.17;;;20.15;;
61840;SDS011;47773;53.174;6.614;2022-12-04T09:15:13;51.97;;;21.30;;
61840;SDS011;47773;53.174;6.614;2022-12-04T09:17:39;52.03;;;19.83;;
61840;SDS011;47773;53.174;6.614;2022-12-04T09:20:05;53.35;;;20.92;;
61840;SDS011;47773;53.174;6.614;2022-12-04T09:22:32;48.90;;;20.10;;
61840;SDS011;47773;53.174;6.614;2022-12-04T09:25:02;48.78;;;20.38;;
61840;SDS011;47773;53.174;6.614;2022-12-04T09:27:29;52.67;;;20.50;;
61840;SDS011;47773;53.174;6.614;2022-12-04T09:29:59;51.40;;;20.85;;
61840;SDS011;47773;53.174;6.614;2022-12-04T09:32:24;47.72;;;19.25;;
61840;SDS011;47773;53.174;6.614;2022-12-04T09:34:50;54.88;;;20.20;;
61840;SDS011;47773;53.174;6.614;2022-12-04T09:37:16;46.22;;;20.75;;
61840;SDS011;47773;53.174;6.614;2022-12-04T09:39:42;51.05;;;20.52;;
61840;SDS011;47773;53.174;6.614;2022-12-04T09:44:51;51.90;;;20.27;;
61840;SDS011;47773;53.174;6.614;2022-12-04T09:47:28;50.42;;;20.17;;
61840;SDS011;47773;53.174;6.614;2022-12-04T09:50:20;50.67;;;19.92;;
61840;SDS011;47773;53.174;6.614;2022-12-04T09:55:31;50.85;;;19.15;;
61840;SDS011;47773;53.174;6.614;2022-12-04T09:58:01;39.33;;;16.50;;
61840;SDS011;47773;53.174;6.614;2022-12-04T10:00:30;50.58;;;20.75;;
61840;SDS011;47773;53.174;6.614;2022-12-04T10:03:04;54.55;;;20.42;;
61840;SDS011;47773;53.174;6.614;2022-12-04T10:08:18;52.40;;;18.63;;
61840;SDS011;47773;53.174;6.614;2022-12-04T10:10:49;43.90;;;18.13;;
61840;SDS011;47773;53.174;6.614;2022-12-04T10:24:57;50.53;;;19.20;;
61840;SDS011;47773;53.174;6.614;2022-12-04T10:30:06;54.28;;;18.75;;
61840;SDS011;47773;53.174;6.614;2022-12-04T10:32:59;47.97;;;18.38;;
61840;SDS011;47773;53.174;6.614;2022-12-04T10:35:31;46.60;;;18.92;;
61840;SDS011;47773;53.174;6.614;2022-12-04T10:38:02;39.80;;;16.42;;
61840;SDS011;47773;53.174;6.614;2022-12-04T10:43:30;45.72;;;18.35;;
61840;SDS011;47773;53.174;6.614;2022-12-04T10:46:14;43.65;;;17.60;;
61840;SDS011;47773;53.174;6.614;2022-12-04T10:48:45;45.67;;;18.45;;
61840;SDS011;47773;53.174;6.614;2022-12-04T10:51:14;44.97;;;18.27;;
61840;SDS011;47773;53.174;6.614;2022-12-04T10:53:41;42.38;;;15.82;;
61840;SDS011;47773;53.174;6.614;2022-12-04T10:56:11;44.17;;;16.70;;
61840;SDS011;47773;53.174;6.614;2022-12-04T10:58:56;40.47;;;16.10;;
61840;SDS011;47773;53.174;6.614;2022-12-04T11:01:23;38.53;;;15.63;;
61840;SDS011;47773;53.174;6.614;2022-12-04T11:04:04;42.00;;;16.40;;
61840;SDS011;47773;53.174;6.614;2022-12-04T11:06:32;38.60;;;14.98;;
61840;SDS011;47773;53.174;6.614;2022-12-04T11:08:59;33.88;;;14.93;;
61840;SDS011;47773;53.174;6.614;2022-12-04T11:11:28;37.97;;;14.90;;
61840;SDS011;47773;53.174;6.614;2022-12-04T11:14:04;35.85;;;14.55;;
61840;SDS011;47773;53.174;6.614;2022-12-04T11:17:00;32.25;;;12.65;;
61840;SDS011;47773;53.174;6.614;2022-12-04T11:19:29;33.78;;;13.68;;
61840;SDS011;47773;53.174;6.614;2022-12-04T11:22:08;29.70;;;11.80;;
61840;SDS011;47773;53.174;6.614;2022-12-04T11:24:39;40.10;;;14.85;;
61840;SDS011;47773;53.174;6.614;2022-12-04T11:27:07;31.60;;;13.60;;
61840;SDS011;47773;53.174;6.614;2022-12-04T11:29:45;32.38;;;13.88;;
61840;SDS011;47773;53.174;6.614;2022-12-04T11:32:16;35.10;;;13.57;;
61840;SDS011;47773;53.174;6.614;2022-12-04T11:34:49;35.00;;;13.52;;
61840;SDS011;47773;53.174;6.614;2022-12-04T11:37:34;37.53;;;13.30;;
61840;SDS011;47773;53.174;6.614;2022-12-04T11:40:00;31.38;;;13.15;;
61840;SDS011;47773;53.174;6.614;2022-12-04T11:42:29;31.02;;;13.05;;
61840;SDS011;47773;53.174;6.614;2022-12-04T11:44:57;30.85;;;13.40;;
61840;SDS011;47773;53.174;6.614;2022-12-04T11:47:28;33.20;;;13.95;;
61840;SDS011;47773;53.174;6.614;2022-12-04T11:50:00;32.83;;;13.55;;
61840;SDS011;47773;53.174;6.614;2022-12-04T11:55:47;33.38;;;12.80;;
61840;SDS011;47773;53.174;6.614;2022-12-04T11:58:28;36.05;;;14.27;;
61840;SDS011;47773;53.174;6.614;2022-12-04T12:14:39;30.55;;;13.40;;
61840;SDS011;47773;53.174;6.614;2022-12-04T12:33:35;34.17;;;14.23;;
61840;SDS011;47773;53.174;6.614;2022-12-04T12:36:24;36.08;;;14.60;;
61840;SDS011;47773;53.174;6.614;2022-12-04T12:39:02;32.72;;;14.40;;
61840;SDS011;47773;53.174;6.614;2022-12-04T12:41:47;35.67;;;15.40;;
61840;SDS011;47773;53.174;6.614;2022-12-04T12:44:26;34.25;;;13.45;;
61840;SDS011;47773;53.174;6.614;2022-12-04T12:46:59;42.55;;;15.05;;
61840;SDS011;47773;53.174;6.614;2022-12-04T12:49:37;37.65;;;15.48;;
61840;SDS011;47773;53.174;6.614;2022-12-04T12:52:06;38.50;;;15.40;;
61840;SDS011;47773;53.174;6.614;2022-12-04T12:54:43;39.72;;;15.23;;
61840;SDS011;47773;53.174;6.614;2022-12-04T12:57:19;36.72;;;15.02;;
61840;SDS011;47773;53.174;6.614;2022-12-04T12:59:52;47.92;;;17.10;;
61840;SDS011;47773;53.174;6.614;2022-12-04T13:02:33;36.22;;;16.23;;
61840;SDS011;47773;53.174;6.614;2022-12-04T13:05:04;35.10;;;15.40;;
61840;SDS011;47773;53.174;6.614;2022-12-04T13:07:47;35.42;;;14.45;;
61840;SDS011;47773;53.174;6.614;2022-12-04T13:13:03;37.50;;;15.73;;
61840;SDS011;47773;53.174;6.614;2022-12-04T13:15:43;41.13;;;15.60;;
61840;SDS011;47773;53.174;6.614;2022-12-04T13:18:36;37.75;;;15.00;;
61840;SDS011;47773;53.174;6.614;2022-12-04T13:21:15;47.88;;;18.02;;
61840;SDS011;47773;53.174;6.614;2022-12-04T13:26:56;44.72;;;17.08;;
61840;SDS011;47773;53.174;6.614;2022-12-04T13:34:55;43.17;;;17.23;;
61840;SDS011;47773;53.174;6.614;2022-12-04T13:37:46;43.30;;;16.50;;
61840;SDS011;47773;53.174;6.614;2022-12-04T13:43:05;44.05;;;16.60;;
61840;SDS011;47773;53.174;6.614;2022-12-04T13:45:41;41.70;;;17.73;;
61840;SDS011;47773;53.174;6.614;2022-12-04T13:48:09;43.33;;;17.02;;
61840;SDS011;47773;53.174;6.614;2022-12-04T13:50:38;41.70;;;17.48;;
61840;SDS011;47773;53.174;6.614;2022-12-04T13:53:04;47.33;;;17.73;;
61840;SDS011;47773;53.174;6.614;2022-12-04T13:55:54;48.53;;;18.45;;
61840;SDS011;47773;53.174;6.614;2022-12-04T14:01:05;41.15;;;17.15;;
61840;SDS011;47773;53.174;6.614;2022-12-04T14:03:48;44.25;;;18.15;;
61840;SDS011;47773;53.174;6.614;2022-12-04T14:06:27;50.38;;;18.13;;
61840;SDS011;47773;53.174;6.614;2022-12-04T14:09:06;55.85;;;19.52;;
61840;SDS011;47773;53.174;6.614;2022-12-04T14:11:44;55.95;;;20.60;;
61840;SDS011;47773;53.174;6.614;2022-12-04T14:14:22;53.95;;;18.83;;
61840;SDS011;47773;53.174;6.614;2022-12-04T14:16:51;49.53;;;18.92;;
61840;SDS011;47773;53.174;6.614;2022-12-04T14:19:27;50.10;;;19.17;;
61840;SDS011;47773;53.174;6.614;2022-12-04T14:21:54;49.08;;;19.77;;
61840;SDS011;47773;53.174;6.614;2022-12-04T14:24:31;53.05;;;19.10;;
61840;SDS011;47773;53.174;6.614;2022-12-04T14:26:59;48.28;;;19.65;;
61840;SDS011;47773;53.174;6.614;2022-12-04T14:31:52;49.00;;;19.75;;
61840;SDS011;47773;53.174;6.614;2022-12-04T14:34:27;56.50;;;20.65;;
61840;SDS011;47773;53.174;6.614;2022-12-04T14:36:58;49.13;;;18.58;;
61840;SDS011;47773;53.174;6.614;2022-12-04T14:39:30;50.33;;;22.35;;
61840;SDS011;47773;53.174;6.614;2022-12-04T14:42:45;51.97;;;20.08;;
61840;SDS011;47773;53.174;6.614;2022-12-04T14:45:01;54.45;;;20.25;;
61840;SDS011;47773;53.174;6.614;2022-12-04T14:55:35;43.15;;;16.70;;
61840;SDS011;47773;53.174;6.614;2022-12-04T14:58:20;51.30;;;19.23;;
61840;SDS011;47773;53.174;6.614;2022-12-04T15:03:55;40.63;;;15.40;;
61840;SDS011;47773;53.174;6.614;2022-12-04T15:08:57;41.88;;;17.00;;
61840;SDS011;47773;53.174;6.614;2022-12-04T15:11:49;44.45;;;18.15;;
61840;SDS011;47773;53.174;6.614;2022-12-04T15:14:39;42.42;;;17.30;;
61840;SDS011;47773;53.174;6.614;2022-12-04T15:17:07;42.88;;;18.42;;
61840;SDS011;47773;53.174;6.614;2022-12-04T15:19:34;45.70;;;17.60;;
61840;SDS011;47773;53.174;6.614;2022-12-04T15:22:01;48.53;;;18.38;;
61840;SDS011;47773;53.174;6.614;2022-12-04T15:24:28;48.13;;;18.30;;
61840;SDS011;47773;53.174;6.614;2022-12-04T15:26:54;50.78;;;18.30;;
61840;SDS011;47773;53.174;6.614;2022-12-04T15:29:22;50.55;;;19.20;;
61840;SDS011;47773;53.174;6.614;2022-12-04T15:31:52;44.47;;;18.05;;
61840;SDS011;47773;53.174;6.614;2022-12-04T15:34:22;51.35;;;19.55;;
61840;SDS011;47773;53.174;6.614;2022-12-04T15:39:22;48.95;;;19.00;;
61840;SDS011;47773;53.174;6.614;2022-12-04T15:41:50;47.90;;;18.65;;
61840;SDS011;47773;53.174;6.614;2022-12-04T15:44:29;56.05;;;20.58;;
61840;SDS011;47773;53.174;6.614;2022-12-04T15:46:57;58.33;;;20.42;;
61840;SDS011;47773;53.174;6.614;2022-12-04T15:49:31;53.88;;;20.02;;
61840;SDS011;47773;53.174;6.614;2022-12-04T15:52:04;56.25;;;20.77;;
61840;SDS011;47773;53.174;6.614;2022-12-04T15:54:36;51.45;;;19.10;;
61840;SDS011;47773;53.174;6.614;2022-12-04T16:00:05;49.33;;;18.50;;
61840;SDS011;47773;53.174;6.614;2022-12-04T16:02:46;54.90;;;20.73;;
61840;SDS011;47773;53.174;6.614;2022-12-04T16:05:20;53.28;;;20.50;;
61840;SDS011;47773;53.174;6.614;2022-12-04T16:07:59;68.13;;;20.98;;
61840;SDS011;47773;53.174;6.614;2022-12-04T16:10:54;55.58;;;20.20;;
61840;SDS011;47773;53.174;6.614;2022-12-04T16:13:27;49.70;;;19.75;;
61840;SDS011;47773;53.174;6.614;2022-12-04T16:15:58;54.00;;;21.83;;
61840;SDS011;47773;53.174;6.614;2022-12-04T16:18:24;55.63;;;21.85;;
61840;SDS011;47773;53.174;6.614;2022-12-04T16:20:50;52.50;;;20.85;;
61840;SDS011;47773;53.174;6.614;2022-12-04T16:23:16;56.53;;;21.55;;
61840;SDS011;47773;53.174;6.614;2022-12-04T16:25:41;60.17;;;22.73;;
61840;SDS011;47773;53.174;6.614;2022-12-04T16:28:07;52.72;;;20.90;;
61840;SDS011;47773;53.174;6.614;2022-12-04T16:30:33;55.55;;;22.00;;
61840;SDS011;47773;53.174;6.614;2022-12-04T16:33:00;55.40;;;22.00;;
61840;SDS011;47773;53.174;6.614;2022-12-04T16:35:25;56.17;;;21.42;;
61840;SDS011;47773;53.174;6.614;2022-12-04T16:37:51;58.10;;;23.60;;
61840;SDS011;47773;53.174;6.614;2022-12-04T16:40:17;61.40;;;21.83;;
61840;SDS011;47773;53.174;6.614;2022-12-04T16:42:43;53.72;;;21.52;;
61840;SDS011;47773;53.174;6.614;2022-12-04T16:45:52;53.50;;;21.00;;
61840;SDS011;47773;53.174;6.614;2022-12-04T16:47:58;55.38;;;20.55;;
61840;SDS011;47773;53.174;6.614;2022-12-04T16:50:24;55.92;;;23.05;;
61840;SDS011;47773;53.174;6.614;2022-12-04T16:52:51;53.60;;;21.98;;
61840;SDS011;47773;53.174;6.614;2022-12-04T16:55:18;56.60;;;21.40;;
61840;SDS011;47773;53.174;6.614;2022-12-04T16:57:47;53.13;;;21.38;;
61840;SDS011;47773;53.174;6.614;2022-12-04T17:00:14;56.13;;;22.27;;